createdAt,value
2023-01-13T00:01:08.519Z,33.05
2023-01-13T00:03:35.835Z,28.73
2023-01-13T00:06:02.586Z,29.02
2023-01-13T00:08:29.510Z,30.30
2023-01-13T00:10:56.156Z,33.70
2023-01-13T00:13:26.716Z,39.63
2023-01-13T00:16:03.201Z,32.67
2023-01-13T00:18:29.861Z,31.48
2023-01-13T00:21:00.255Z,31.67
2023-01-13T00:23:28.630Z,33.75
2023-01-13T00:25:56.834Z,36.72
2023-01-13T00:28:23.431Z,35.15
2023-01-13T00:30:51.253Z,27.65
2023-01-13T00:33:18.179Z,27.80
2023-01-13T00:35:45.033Z,25.98
2023-01-13T00:38:11.971Z,34.65
2023-01-13T00:40:38.528Z,29.58
2023-01-13T00:43:23.280Z,22.98
2023-01-13T00:45:52.945Z,28.17
2023-01-13T00:48:21.030Z,26.75
2023-01-13T00:50:54.437Z,29.17
2023-01-13T00:53:21.085Z,27.27
2023-01-13T00:55:47.734Z,27.40
2023-01-13T00:58:14.357Z,25.58
2023-01-13T01:00:42.125Z,24.98
2023-01-13T01:03:12.247Z,32.30
2023-01-13T01:05:39.852Z,24.63
2023-01-13T01:08:06.354Z,28.58
2023-01-13T01:10:32.936Z,31.10
2023-01-13T01:12:59.461Z,23.23
2023-01-13T01:15:26.651Z,29.90
2023-01-13T01:17:53.155Z,21.30
2023-01-13T01:20:19.707Z,22.10
2023-01-13T01:22:46.277Z,26.92
2023-01-13T01:25:12.777Z,28.75
2023-01-13T01:27:39.248Z,25.13
2023-01-13T01:30:06.305Z,22.73
2023-01-13T01:32:34.793Z,20.23
2023-01-13T01:35:01.314Z,24.77
2023-01-13T01:37:27.896Z,25.63
2023-01-13T01:39:54.538Z,18.58
2023-01-13T01:42:41.254Z,21.63
2023-01-13T01:45:15.442Z,26.60
2023-01-13T01:47:42.863Z,23.75
2023-01-13T01:50:10.699Z,15.85
2023-01-13T01:52:41.839Z,22.23
2023-01-13T01:55:22.544Z,16.98
2023-01-13T01:58:01.997Z,18.48
2023-01-13T02:00:29.644Z,19.70
2023-01-13T02:02:57.230Z,13.38
2023-01-13T02:05:24.266Z,15.85
2023-01-13T02:07:54.400Z,20.77
2023-01-13T02:10:23.467Z,17.35
2023-01-13T02:12:51.606Z,13.80
2023-01-13T02:15:27.174Z,22.10
2023-01-13T02:18:19.748Z,19.08
2023-01-13T02:21:05.514Z,17.27
2023-01-13T02:24:05.881Z,12.02
2023-01-13T02:26:59.824Z,10.52
2023-01-13T02:29:47.839Z,15.18
2023-01-13T02:32:29.043Z,17.73
2023-01-13T02:35:05.770Z,13.30
2023-01-13T02:37:36.534Z,12.48
2023-01-13T02:40:08.255Z,17.77
2023-01-13T02:42:59.207Z,12.20
2023-01-13T02:45:34.317Z,15.68
2023-01-13T02:48:05.478Z,18.83
2023-01-13T02:50:40.103Z,13.93
2023-01-13T02:55:50.333Z,15.73
2023-01-13T02:58:24.722Z,17.08
2023-01-13T03:00:51.369Z,16.88
2023-01-13T03:03:18.028Z,15.57
2023-01-13T03:05:48.190Z,17.85
2023-01-13T03:08:23.470Z,13.95
2023-01-13T03:11:15.035Z,12.85
2023-01-13T03:14:06.560Z,19.13
2023-01-13T03:16:48.369Z,14.20
2023-01-13T03:19:17.839Z,18.55
2023-01-13T03:21:57.185Z,11.63
2023-01-13T03:24:36.032Z,14.98
2023-01-13T03:27:06.873Z,14.10
2023-01-13T03:29:48.747Z,16.23
2023-01-13T03:32:17.389Z,10.50
2023-01-13T03:34:50.494Z,16.52
2023-01-13T03:37:21.570Z,16.00
2023-01-13T03:39:54.387Z,12.80
2023-01-13T03:42:24.900Z,21.42
2023-01-13T03:45:08.139Z,18.75
2023-01-13T03:47:55.490Z,16.42
2023-01-13T03:50:34.177Z,11.57
2023-01-13T03:53:11.965Z,15.50
2023-01-13T03:55:44.453Z,20.60
2023-01-13T03:58:21.864Z,13.07
2023-01-13T04:00:56.648Z,11.80
2023-01-13T04:03:30.968Z,13.98
2023-01-13T04:06:13.524Z,10.80
2023-01-13T04:08:49.211Z,10.85
2023-01-13T04:11:24.846Z,13.05
2023-01-13T04:13:53.598Z,12.98
2023-01-13T04:16:20.298Z,12.40
2023-01-13T04:18:49.892Z,13.10
2023-01-13T04:21:16.432Z,10.40
2023-01-13T04:23:43.024Z,16.60
2023-01-13T04:26:09.595Z,18.73
2023-01-13T04:28:36.095Z,12.43
2023-01-13T04:31:02.650Z,12.13
2023-01-13T04:33:29.687Z,11.27
2023-01-13T04:35:56.266Z,13.68
2023-01-13T04:38:23.266Z,20.15
2023-01-13T04:40:49.851Z,15.85
2023-01-13T04:43:16.934Z,16.70
2023-01-13T04:45:43.835Z,18.50
2023-01-13T04:48:11.327Z,15.80
2023-01-13T04:50:37.961Z,12.52
2023-01-13T04:53:04.570Z,11.00
2023-01-13T04:55:32.056Z,13.88
2023-01-13T04:58:03.716Z,12.95
2023-01-13T05:00:32.013Z,14.60
2023-01-13T05:02:59.877Z,12.48
2023-01-13T05:05:27.884Z,14.05
2023-01-13T05:07:54.675Z,16.00
2023-01-13T05:10:23.731Z,12.57
2023-01-13T05:13:08.782Z,14.45
2023-01-13T05:15:53.570Z,15.18
2023-01-13T05:18:20.855Z,14.02
2023-01-13T05:20:47.430Z,10.00
2023-01-13T05:23:32.631Z,10.95
2023-01-13T05:25:59.369Z,14.30
2023-01-13T05:28:25.846Z,12.02
2023-01-13T05:30:52.725Z,18.42
2023-01-13T05:33:22.812Z,14.52
2023-01-13T05:35:49.750Z,16.52
2023-01-13T05:38:18.043Z,14.18
2023-01-13T05:41:03.484Z,11.48
2023-01-13T05:43:30.219Z,16.92
2023-01-13T05:46:01.413Z,14.05
2023-01-13T05:48:38.618Z,11.02
2023-01-13T05:51:07.439Z,15.68
2023-01-13T05:53:34.391Z,14.52
2023-01-13T05:56:04.664Z,14.25
2023-01-13T05:58:31.369Z,21.70
2023-01-13T06:01:06.071Z,14.30
2023-01-13T06:03:32.784Z,13.60
2023-01-13T06:06:01.587Z,15.10
2023-01-13T06:08:28.729Z,15.05
2023-01-13T06:10:55.359Z,13.38
2023-01-13T06:13:22.238Z,13.32
2023-01-13T06:15:49.004Z,15.40
2023-01-13T06:18:15.579Z,11.68
2023-01-13T06:20:42.041Z,15.70
2023-01-13T06:23:11.023Z,14.15
2023-01-13T06:25:44.409Z,16.50
2023-01-13T06:28:11.082Z,10.02
2023-01-13T06:30:46.920Z,20.48
2023-01-13T06:33:24.704Z,19.23
2023-01-13T06:35:55.832Z,15.65
2023-01-13T06:38:27.169Z,27.77
2023-01-13T06:40:54.707Z,18.88
2023-01-13T06:43:21.631Z,10.93
2023-01-13T06:45:52.544Z,14.88
2023-01-13T06:48:24.495Z,13.38
2023-01-13T06:50:51.595Z,15.32
2023-01-13T06:53:18.110Z,14.65
2023-01-13T06:55:44.694Z,16.92
2023-01-13T06:58:11.766Z,13.98
2023-01-13T07:00:38.387Z,11.00
2023-01-13T07:03:13.509Z,15.45
2023-01-13T07:05:41.740Z,11.77
2023-01-13T07:08:09.111Z,9.27
2023-01-13T07:10:37.022Z,13.68
2023-01-13T07:13:23.406Z,11.77
2023-01-13T07:15:57.198Z,12.80
2023-01-13T07:18:24.630Z,19.30
2023-01-13T07:21:02.456Z,14.15
2023-01-13T07:23:31.544Z,11.02
2023-01-13T07:25:59.635Z,15.68
2023-01-13T07:28:28.713Z,7.53
2023-01-13T07:30:55.817Z,12.48
2023-01-13T07:33:22.748Z,13.48
2023-01-13T07:36:02.581Z,10.57
2023-01-13T07:38:29.676Z,9.60
2023-01-13T07:40:56.228Z,8.18
2023-01-13T07:43:34.873Z,7.70
2023-01-13T07:46:06.235Z,9.68
2023-01-13T07:48:34.373Z,11.38
2023-01-13T07:51:05.811Z,10.23
2023-01-13T07:53:33.033Z,7.30
2023-01-13T07:56:00.232Z,4.93
2023-01-13T07:58:27.136Z,10.32
2023-01-13T08:00:54.394Z,7.18
2023-01-13T08:03:22.315Z,12.43
2023-01-13T08:05:48.916Z,8.45
2023-01-13T08:08:15.880Z,7.70
2023-01-13T08:10:43.742Z,5.13
2023-01-13T08:13:22.462Z,8.25
2023-01-13T08:15:51.572Z,6.90
2023-01-13T08:18:22.079Z,4.68
2023-01-13T08:20:49.741Z,9.68
2023-01-13T08:23:16.451Z,3.60
2023-01-13T08:25:43.033Z,3.95
2023-01-13T08:28:09.660Z,9.23
2023-01-13T08:30:36.491Z,7.63
2023-01-13T08:33:07.225Z,5.30
2023-01-13T08:35:35.611Z,8.32
2023-01-13T08:38:02.151Z,13.18
2023-01-13T08:40:28.799Z,8.32
2023-01-13T08:42:56.371Z,7.20
2023-01-13T08:45:22.952Z,5.38
2023-01-13T08:47:49.537Z,8.65
2023-01-13T08:50:16.221Z,7.05
2023-01-13T08:52:43.337Z,2.33
2023-01-13T08:55:10.673Z,10.63
2023-01-13T08:57:37.455Z,8.57
2023-01-13T09:00:06.511Z,5.00
2023-01-13T09:02:34.053Z,10.80
2023-01-13T09:05:03.681Z,5.72
2023-01-13T09:07:31.407Z,11.80
2023-01-13T09:09:57.976Z,12.27
2023-01-13T09:12:43.714Z,9.82
2023-01-13T09:15:10.653Z,5.03
2023-01-13T09:17:37.181Z,17.88
2023-01-13T09:20:04.604Z,6.75
2023-01-13T09:22:31.137Z,6.68
2023-01-13T09:24:57.878Z,4.72
2023-01-13T09:27:24.444Z,6.32
2023-01-13T09:29:51.032Z,4.68
2023-01-13T09:32:17.587Z,7.50
2023-01-13T09:35:02.532Z,8.05
2023-01-13T09:40:01.733Z,9.50
2023-01-13T09:43:11.070Z,6.95
2023-01-13T09:45:47.753Z,6.07
2023-01-13T09:48:22.024Z,7.85
2023-01-13T09:50:58.451Z,9.88
2023-01-13T09:53:38.810Z,3.95
2023-01-13T09:56:06.185Z,4.32
2023-01-13T09:58:33.023Z,5.13
2023-01-13T10:01:17.925Z,7.10
2023-01-13T10:06:30.435Z,3.83
2023-01-13T10:08:57.673Z,9.38
2023-01-13T10:11:43.939Z,4.18
2023-01-13T10:14:22.465Z,4.10
2023-01-13T10:17:08.390Z,3.97
2023-01-13T10:19:42.585Z,4.85
2023-01-13T10:22:23.728Z,4.68
2023-01-13T10:24:59.076Z,4.57
2023-01-13T10:27:36.427Z,2.72
2023-01-13T10:30:17.425Z,5.07
2023-01-13T10:32:52.865Z,5.95
2023-01-13T10:35:48.667Z,2.95
2023-01-13T10:38:39.647Z,3.83
2023-01-13T10:41:18.395Z,2.45
2023-01-13T10:44:08.388Z,3.03
2023-01-13T10:46:59.351Z,3.47
2023-01-13T10:49:38.805Z,2.75
2023-01-13T10:52:26.397Z,4.68
2023-01-13T10:54:54.520Z,4.07
2023-01-13T10:57:24.141Z,4.10
2023-01-13T10:59:51.385Z,5.10
2023-01-13T11:02:26.523Z,2.83
2023-01-13T11:04:53.295Z,3.67
2023-01-13T11:07:31.527Z,4.45
2023-01-13T11:10:10.033Z,2.70
2023-01-13T11:13:11.553Z,8.15
2023-01-13T11:15:43.878Z,3.85
2023-01-13T11:18:28.883Z,3.70
2023-01-13T11:20:58.908Z,3.03
2023-01-13T11:23:34.005Z,3.33
2023-01-13T11:26:19.320Z,3.53
2023-01-13T11:29:08.524Z,6.57
2023-01-13T11:31:42.523Z,2.53
2023-01-13T11:34:27.332Z,2.88
2023-01-13T11:36:57.026Z,5.30
2023-01-13T11:40:05.419Z,3.42
2023-01-13T11:42:54.665Z,3.75
2023-01-13T11:45:44.035Z,4.15
2023-01-13T11:48:22.505Z,2.20
2023-01-13T11:51:04.324Z,1.50
2023-01-13T11:53:53.444Z,3.20
2023-01-13T11:56:31.908Z,4.65
2023-01-13T11:59:12.411Z,2.90
2023-01-13T12:02:02.487Z,2.20
2023-01-13T12:04:49.065Z,1.63
2023-01-13T12:07:41.865Z,0.93
2023-01-13T12:10:13.658Z,3.25
2023-01-13T12:12:47.519Z,3.40
2023-01-13T12:15:16.796Z,4.70
2023-01-13T12:17:55.525Z,1.10
2023-01-13T12:20:35.987Z,2.58
2023-01-13T12:23:11.598Z,4.20
2023-01-13T12:25:43.820Z,5.85
2023-01-13T12:28:17.119Z,3.25
2023-01-13T12:30:55.000Z,4.80
2023-01-13T12:33:29.371Z,4.07
2023-01-13T12:36:33.512Z,1.63
2023-01-13T12:39:14.460Z,4.40
2023-01-13T12:42:08.164Z,3.63
2023-01-13T12:44:34.677Z,3.72
2023-01-13T12:47:01.260Z,4.15
2023-01-13T12:49:33.241Z,3.00
2023-01-13T12:52:03.394Z,5.95
2023-01-13T12:54:45.084Z,1.52
2023-01-13T12:57:21.617Z,2.97
2023-01-13T13:00:03.260Z,3.00
2023-01-13T13:02:40.815Z,3.17
2023-01-13T13:05:22.664Z,3.50
2023-01-13T13:07:54.772Z,6.80
2023-01-13T13:10:31.520Z,1.63
2023-01-13T13:13:18.340Z,2.90
2023-01-13T13:15:47.517Z,2.13
2023-01-13T13:18:16.906Z,3.47
2023-01-13T13:21:05.980Z,3.50
2023-01-13T13:23:51.222Z,4.28
2023-01-13T13:26:36.139Z,5.60
2023-01-13T13:29:28.601Z,3.22
2023-01-13T13:32:12.712Z,5.43
2023-01-13T13:35:07.509Z,4.95
2023-01-13T13:38:07.876Z,8.13
2023-01-13T13:40:59.314Z,4.43
2023-01-13T13:43:46.345Z,9.27
2023-01-13T13:46:49.217Z,3.65
2023-01-13T13:49:21.180Z,6.55
2023-01-13T13:52:01.264Z,5.07
2023-01-13T13:54:28.480Z,4.30
2023-01-13T13:56:55.169Z,3.25
2023-01-13T13:59:26.179Z,9.85
2023-01-13T14:02:01.414Z,4.30
2023-01-13T14:04:33.752Z,3.33
2023-01-13T14:07:04.980Z,4.30
2023-01-13T14:09:41.476Z,2.78
2023-01-13T14:12:18.792Z,3.60
2023-01-13T14:14:47.486Z,3.40
2023-01-13T14:17:26.409Z,2.67
2023-01-13T14:20:08.004Z,3.28
2023-01-13T14:22:34.623Z,6.68
2023-01-13T14:25:02.083Z,3.15
2023-01-13T14:27:30.557Z,3.33
2023-01-13T14:30:00.483Z,4.65
2023-01-13T14:32:35.096Z,4.60
2023-01-13T14:35:01.897Z,4.00
2023-01-13T14:37:28.360Z,3.90
2023-01-13T14:39:55.456Z,6.70
2023-01-13T14:42:22.255Z,6.60
2023-01-13T14:44:50.984Z,9.05
2023-01-13T14:47:22.488Z,2.85
2023-01-13T14:49:59.249Z,2.25
2023-01-13T14:52:28.187Z,5.43
2023-01-13T14:55:10.247Z,9.93
2023-01-13T14:57:39.559Z,8.45
2023-01-13T15:00:15.251Z,5.07
2023-01-13T15:02:57.190Z,5.25
2023-01-13T15:05:30.870Z,3.40
2023-01-13T15:08:02.377Z,4.10
2023-01-13T15:11:12.622Z,4.75
2023-01-13T15:13:50.229Z,7.15
2023-01-13T15:16:25.407Z,5.10
2023-01-13T15:18:53.643Z,9.18
2023-01-13T15:21:20.797Z,8.60
2023-01-13T15:23:47.585Z,7.22
2023-01-13T15:26:19.776Z,7.22
2023-01-13T15:28:46.871Z,6.53
2023-01-13T15:31:13.794Z,6.78
2023-01-13T15:33:40.567Z,7.78
2023-01-13T15:36:20.834Z,7.32
2023-01-13T15:38:47.370Z,8.82
2023-01-13T15:41:14.003Z,6.22
2023-01-13T15:43:59.081Z,4.75
2023-01-13T15:46:37.979Z,4.65
2023-01-13T15:49:34.961Z,5.63
2023-01-13T15:52:12.125Z,5.28
2023-01-13T15:54:38.662Z,8.85
2023-01-13T15:57:05.865Z,8.13
2023-01-13T15:59:33.876Z,9.35
2023-01-13T16:02:00.394Z,14.27
2023-01-13T16:04:26.913Z,4.05
2023-01-13T16:06:53.518Z,8.40
2023-01-13T16:09:20.097Z,9.30
2023-01-13T16:11:46.737Z,8.10
2023-01-13T16:14:13.226Z,7.03
2023-01-13T16:16:40.798Z,10.82
2023-01-13T16:19:07.455Z,9.85
2023-01-13T16:21:34.241Z,7.03
2023-01-13T16:24:00.808Z,7.32
2023-01-13T16:26:29.922Z,9.25
2023-01-13T16:28:58.249Z,6.75
2023-01-13T16:31:26.640Z,11.20
2023-01-13T16:33:53.490Z,9.38
2023-01-13T16:36:21.347Z,6.57
2023-01-13T16:38:49.584Z,9.32
2023-01-13T16:41:16.295Z,13.35
2023-01-13T16:43:43.179Z,12.48
2023-01-13T16:46:26.084Z,7.03
2023-01-13T16:48:54.492Z,12.48
2023-01-13T16:51:22.170Z,6.18
2023-01-13T16:53:49.601Z,8.02
2023-01-13T16:56:33.996Z,9.10
2023-01-13T16:59:07.570Z,11.00
2023-01-13T17:01:37.433Z,12.80
2023-01-13T17:04:06.380Z,14.80
2023-01-13T17:06:37.538Z,9.80
2023-01-13T17:09:07.505Z,8.55
2023-01-13T17:11:34.396Z,13.80
2023-01-13T17:14:01.082Z,12.95
2023-01-13T17:16:45.410Z,13.35
2023-01-13T17:19:12.270Z,10.77
2023-01-13T17:21:38.783Z,11.95
2023-01-13T17:24:09.605Z,9.82
2023-01-13T17:26:54.273Z,6.93
2023-01-13T17:29:23.389Z,7.15
2023-01-13T17:31:50.723Z,10.57
2023-01-13T17:34:18.020Z,14.45
2023-01-13T17:36:44.824Z,12.77
2023-01-13T17:39:20.308Z,10.50
2023-01-13T17:41:47.531Z,13.23
2023-01-13T17:44:15.081Z,12.57
2023-01-13T17:46:42.366Z,11.32
2023-01-13T17:49:17.014Z,12.13
2023-01-13T17:51:44.985Z,8.82
2023-01-13T17:54:12.512Z,12.63
2023-01-13T17:56:41.066Z,11.40
2023-01-13T17:59:10.219Z,21.70
2023-01-13T18:01:37.594Z,12.02
2023-01-13T18:04:04.753Z,12.35
2023-01-13T18:06:31.263Z,13.98
2023-01-13T18:08:58.954Z,8.15
2023-01-13T18:11:26.662Z,13.93
2023-01-13T18:13:56.919Z,11.23
2023-01-13T18:16:25.316Z,20.23
2023-01-13T18:19:15.118Z,15.98
2023-01-13T18:22:01.106Z,9.80
2023-01-13T18:24:46.353Z,16.92
2023-01-13T18:27:22.879Z,18.83
2023-01-13T18:29:54.914Z,18.63
2023-01-13T18:32:23.178Z,13.63
2023-01-13T18:34:53.936Z,16.00
2023-01-13T18:37:25.758Z,18.73
2023-01-13T18:39:52.746Z,35.28
2023-01-13T18:42:37.659Z,25.90
2023-01-13T18:47:31.197Z,30.15
2023-01-13T18:49:57.973Z,17.45
2023-01-13T18:52:25.228Z,20.35
2023-01-13T18:54:52.595Z,19.33
2023-01-13T18:57:21.380Z,22.17
2023-01-13T18:59:48.229Z,21.75
2023-01-13T19:02:19.605Z,19.80
2023-01-13T19:04:47.360Z,13.15
2023-01-13T19:07:21.868Z,23.35
2023-01-13T19:09:51.833Z,28.98
2023-01-13T19:12:26.017Z,24.02
2023-01-13T19:14:56.467Z,20.75
2023-01-13T19:17:24.546Z,17.27
2023-01-13T19:19:54.338Z,25.92
2023-01-13T19:22:23.433Z,21.20
2023-01-13T19:24:50.525Z,20.88
2023-01-13T19:27:19.152Z,24.85
2023-01-13T19:29:52.019Z,23.77
2023-01-13T19:32:21.104Z,24.13
2023-01-13T19:34:50.947Z,22.67
2023-01-13T19:37:18.427Z,26.77
2023-01-13T19:39:45.429Z,22.15
2023-01-13T19:42:30.727Z,17.25
2023-01-13T19:45:15.915Z,22.63
2023-01-13T19:47:45.528Z,18.63
2023-01-13T19:50:13.631Z,21.38
2023-01-13T19:52:42.042Z,22.80
2023-01-13T19:55:09.672Z,19.33
2023-01-13T19:57:36.992Z,16.48
2023-01-13T20:00:06.481Z,21.83
2023-01-13T20:02:33.109Z,34.25
2023-01-13T20:05:01.945Z,33.85
2023-01-13T20:07:30.353Z,29.65
2023-01-13T20:09:57.555Z,24.95
2023-01-13T20:12:25.334Z,30.92
2023-01-13T20:14:52.251Z,33.08
2023-01-13T20:17:20.852Z,37.17
2023-01-13T20:19:47.900Z,31.02
2023-01-13T20:22:15.072Z,32.20
2023-01-13T20:24:42.027Z,32.65
2023-01-13T20:27:08.847Z,31.80
2023-01-13T20:29:35.625Z,46.15
2023-01-13T20:32:36.666Z,44.50
2023-01-13T20:35:03.299Z,42.47
2023-01-13T20:37:29.844Z,39.00
2023-01-13T20:39:58.083Z,40.15
2023-01-13T20:42:30.525Z,38.03
2023-01-13T20:45:01.066Z,34.67
2023-01-13T20:47:28.981Z,44.20
2023-01-13T20:49:55.619Z,48.17
2023-01-13T20:52:22.214Z,45.42
2023-01-13T20:54:48.762Z,42.60
2023-01-13T20:57:15.286Z,47.55
2023-01-13T20:59:41.920Z,61.97
2023-01-13T21:02:13.151Z,53.63
2023-01-13T21:04:40.521Z,52.58
2023-01-13T21:07:07.489Z,50.65
2023-01-13T21:09:34.204Z,39.17
2023-01-13T21:12:18.988Z,40.05
2023-01-13T21:15:04.355Z,35.03
2023-01-13T21:17:49.137Z,37.13
2023-01-13T21:20:15.932Z,38.72
2023-01-13T21:22:46.794Z,38.13
2023-01-13T21:25:14.103Z,38.25
2023-01-13T21:27:41.290Z,34.78
2023-01-13T21:30:08.350Z,29.08
2023-01-13T21:32:34.855Z,27.40
2023-01-13T21:35:02.111Z,37.80
2023-01-13T21:37:28.603Z,32.17
2023-01-13T21:39:55.503Z,29.90
2023-01-13T21:42:40.568Z,33.60
2023-01-13T21:47:52.594Z,31.10
2023-01-13T21:50:21.789Z,29.77
2023-01-13T21:52:50.365Z,35.55
2023-01-13T21:55:17.213Z,31.88
2023-01-13T21:57:47.914Z,36.75
2023-01-13T22:00:15.858Z,40.05
2023-01-13T22:02:43.014Z,41.47
2023-01-13T22:05:12.218Z,40.50
2023-01-13T22:07:39.828Z,37.95
2023-01-13T22:10:09.228Z,38.58
2023-01-13T22:12:35.933Z,34.58
2023-01-13T22:15:02.826Z,28.52
2023-01-13T22:17:31.609Z,31.80
2023-01-13T22:19:59.195Z,27.25
2023-01-13T22:22:26.370Z,29.02
2023-01-13T22:24:53.906Z,31.20
2023-01-13T22:27:26.123Z,31.20
2023-01-13T22:29:53.063Z,27.73
2023-01-13T22:32:21.029Z,26.52
2023-01-13T22:34:47.646Z,26.60
2023-01-13T22:37:14.351Z,30.60
2023-01-13T22:39:40.887Z,21.58
2023-01-13T22:42:07.678Z,23.30
2023-01-13T22:44:34.205Z,20.25
2023-01-13T22:47:00.777Z,24.90
2023-01-13T22:49:27.346Z,19.52
2023-01-13T22:51:54.180Z,20.50
2023-01-13T22:54:21.379Z,19.92
2023-01-13T22:56:47.838Z,22.92
2023-01-13T22:59:15.960Z,21.02
2023-01-13T23:01:42.985Z,19.95
2023-01-13T23:04:12.967Z,16.95
2023-01-13T23:06:40.133Z,21.67
2023-01-13T23:09:07.774Z,19.80
2023-01-13T23:11:34.651Z,18.70
2023-01-13T23:14:04.343Z,17.23
2023-01-13T23:16:33.785Z,37.95
2023-01-13T23:19:00.317Z,34.80
2023-01-13T23:21:30.386Z,40.83
2023-01-13T23:23:58.687Z,34.00
2023-01-13T23:26:26.188Z,37.20
2023-01-13T23:28:53.306Z,37.83
2023-01-13T23:31:22.110Z,43.03
2023-01-13T23:33:49.013Z,35.05
2023-01-13T23:36:18.591Z,37.05
2023-01-13T23:38:46.361Z,36.33
2023-01-13T23:41:16.042Z,40.13
2023-01-13T23:43:42.570Z,43.10
2023-01-13T23:46:12.427Z,33.95
2023-01-13T23:48:39.045Z,40.05
2023-01-13T23:51:08.736Z,28.02
2023-01-13T23:53:40.220Z,40.58
2023-01-13T23:56:11.229Z,41.35
2023-01-13T23:58:37.857Z,32.45
